createdAt,value
2019-04-25T00:01:01.121Z,16.4
2019-04-25T00:02:11.580Z,16.32
2019-04-25T00:03:22.280Z,16.41
2019-04-25T00:04:33.873Z,16.43
2019-04-25T00:05:47.158Z,16.46
2019-04-25T00:06:57.547Z,16.49
2019-04-25T00:08:07.574Z,16.49
2019-04-25T00:09:18.915Z,16.43
2019-04-25T00:10:29.605Z,16.49
2019-04-25T00:11:40.225Z,16.44
2019-04-25T00:12:54.245Z,16.46
2019-04-25T00:14:04.197Z,16.46
2019-04-25T00:15:13.643Z,16.41
2019-04-25T00:16:24.029Z,16.4
2019-04-25T00:17:34.050Z,16.44
2019-04-25T00:18:46.145Z,16.43
2019-04-25T00:19:57.671Z,16.49
2019-04-25T00:21:09.291Z,16.49
2019-04-25T00:22:19.551Z,16.51
2019-04-25T00:23:29.489Z,16.47
2019-04-25T00:24:39.720Z,16.4
2019-04-25T00:25:53.751Z,16.06
2019-04-25T00:27:04.669Z,15.69
2019-04-25T00:28:14.368Z,15.52
2019-04-25T00:29:24.575Z,15.29
2019-04-25T00:30:36.025Z,15.22
2019-04-25T00:31:51.316Z,15.14
2019-04-25T00:33:02.063Z,15.02
2019-04-25T00:34:12.136Z,14.92
2019-04-25T00:35:22.116Z,14.85
2019-04-25T00:36:32.059Z,14.77
2019-04-25T00:37:47.774Z,14.79
2019-04-25T00:38:58.377Z,14.82
2019-04-25T00:40:09.697Z,14.67
2019-04-25T00:41:21.423Z,14.63
2019-04-25T00:42:31.969Z,14.59
2019-04-25T00:43:45.317Z,14.59
2019-04-25T00:44:57.565Z,14.61
2019-04-25T00:46:07.735Z,14.63
2019-04-25T00:47:19.080Z,14.59
2019-04-25T00:48:29.032Z,14.66
2019-04-25T00:49:39.401Z,14.58
2019-04-25T00:50:55.913Z,14.56
2019-04-25T00:52:07.190Z,14.53
2019-04-25T00:53:17.155Z,14.56
2019-04-25T00:54:27.510Z,14.51
2019-04-25T00:55:38.754Z,14.52
2019-04-25T00:56:54.297Z,14.48
2019-04-25T00:58:05.831Z,14.53
2019-04-25T00:59:18.822Z,14.44
2019-04-25T01:00:29.308Z,14.43
2019-04-25T01:01:41.359Z,14.4
2019-04-25T01:02:56.189Z,14.43
2019-04-25T01:04:08.237Z,14.43
2019-04-25T01:05:19.603Z,14.48
2019-04-25T01:06:29.556Z,14.48
2019-04-25T01:07:39.613Z,14.53
2019-04-25T01:08:51.771Z,14.51
2019-04-25T01:10:05.013Z,14.61
2019-04-25T01:11:16.251Z,14.63
2019-04-25T01:12:26.526Z,14.52
2019-04-25T01:13:36.739Z,14.59
2019-04-25T01:14:48.464Z,14.63
2019-04-25T01:16:00.161Z,14.55
2019-04-25T01:17:11.747Z,14.61
2019-04-25T01:18:23.132Z,14.62
2019-04-25T01:19:36.896Z,14.59
2019-04-25T01:20:49.027Z,14.53
2019-04-25T01:22:00.858Z,14.62
2019-04-25T01:23:11.470Z,14.59
2019-04-25T01:24:21.429Z,14.62
2019-04-25T01:25:47.672Z,14.62
2019-04-25T01:26:59.166Z,14.66
2019-04-25T01:28:10.122Z,14.61
2019-04-25T01:29:20.875Z,14.68
2019-04-25T01:30:31.115Z,14.59
2019-04-25T01:31:41.643Z,14.59
2019-04-25T01:32:54.215Z,14.58
2019-04-25T01:34:04.476Z,14.61
2019-04-25T01:35:16.364Z,14.63
2019-04-25T01:36:28.011Z,14.59
2019-04-25T01:37:38.678Z,14.59
2019-04-25T01:38:49.770Z,14.58
2019-04-25T01:40:04.162Z,14.68
2019-04-25T01:41:14.569Z,14.66
2019-04-25T01:42:25.726Z,14.61
2019-04-25T01:43:37.861Z,14.63
2019-04-25T01:44:50.148Z,14.62
2019-04-25T01:46:05.777Z,14.62
2019-04-25T01:47:16.565Z,14.62
2019-04-25T01:48:28.191Z,14.62
2019-04-25T01:49:38.826Z,14.61
2019-04-25T01:50:49.584Z,14.61
2019-04-25T01:52:03.502Z,14.66
2019-04-25T01:53:14.581Z,14.59
2019-04-25T01:54:26.162Z,14.59
2019-04-25T01:55:36.104Z,14.67
2019-04-25T01:57:08.950Z,14.58
2019-04-25T01:58:19.554Z,14.71
2019-04-25T01:59:30.971Z,14.61
2019-04-25T02:00:43.083Z,14.52
2019-04-25T02:01:59.229Z,14.62
2019-04-25T02:03:13.350Z,14.66
2019-04-25T02:04:23.443Z,14.63
2019-04-25T02:05:33.776Z,14.62
2019-04-25T02:06:43.592Z,14.66
2019-04-25T02:07:54.959Z,14.67
2019-04-25T02:09:07.585Z,14.67
2019-04-25T02:10:18.954Z,14.63
2019-04-25T02:11:28.900Z,14.61
2019-04-25T02:12:39.296Z,14.66
2019-04-25T02:13:49.245Z,14.66
2019-04-25T02:15:05.705Z,14.71
2019-04-25T02:16:16.642Z,14.81
2019-04-25T02:17:26.370Z,14.82
2019-04-25T02:18:36.326Z,14.87
2019-04-25T02:19:46.354Z,14.86
2019-04-25T02:21:04.479Z,14.9
2019-04-25T02:22:14.588Z,14.89
2019-04-25T02:23:24.362Z,14.85
2019-04-25T02:24:33.996Z,14.86
2019-04-25T02:25:44.250Z,14.9
2019-04-25T02:26:57.252Z,14.87
2019-04-25T02:28:10.527Z,14.9
2019-04-25T02:29:23.538Z,14.86
2019-04-25T02:30:35.530Z,14.92
2019-04-25T02:31:47.572Z,14.81
2019-04-25T02:33:11.528Z,14.79
2019-04-25T02:34:25.006Z,14.85
2019-04-25T02:35:37.319Z,14.79
2019-04-25T02:36:55.240Z,14.86
2019-04-25T02:38:19.043Z,14.82
2019-04-25T02:39:29.665Z,14.78
2019-04-25T02:40:45.365Z,14.74
2019-04-25T02:42:00.579Z,14.79
2019-04-25T02:43:16.767Z,14.86
2019-04-25T02:44:29.667Z,14.89
2019-04-25T02:45:39.918Z,14.82
2019-04-25T02:46:51.903Z,14.74
2019-04-25T02:48:09.240Z,14.89
2019-04-25T02:49:41.775Z,14.86
2019-04-25T02:50:53.995Z,14.92
2019-04-25T02:52:18.314Z,14.9
2019-04-25T02:53:30.079Z,14.89
2019-04-25T02:54:44.871Z,14.9
2019-04-25T02:55:57.533Z,14.94
2019-04-25T02:57:14.569Z,14.9
2019-04-25T02:58:26.658Z,15.02
2019-04-25T02:59:39.350Z,14.96
2019-04-25T03:01:19.087Z,15.02
2019-04-25T03:02:34.259Z,15.04
2019-04-25T03:03:47.460Z,14.99
2019-04-25T03:05:03.758Z,14.96
2019-04-25T03:06:20.139Z,14.97
2019-04-25T03:07:34.563Z,14.94
2019-04-25T03:08:45.044Z,14.96
2019-04-25T03:09:58.157Z,14.87
2019-04-25T03:11:17.192Z,14.87
2019-04-25T03:12:39.303Z,14.9
2019-04-25T03:13:49.749Z,14.9
2019-04-25T03:15:10.276Z,14.87
2019-04-25T03:16:22.168Z,14.87
2019-04-25T03:17:34.223Z,14.78
2019-04-25T03:18:44.359Z,14.87
2019-04-25T03:19:56.702Z,14.87
2019-04-25T03:21:19.979Z,14.85
2019-04-25T03:22:34.364Z,14.85
2019-04-25T03:23:48.809Z,14.82
2019-04-25T03:25:04.461Z,14.79
2019-04-25T03:26:23.375Z,14.79
2019-04-25T03:27:46.555Z,14.85
2019-04-25T03:28:56.515Z,14.86
2019-04-25T03:30:19.779Z,14.86
2019-04-25T03:31:34.572Z,14.85
2019-04-25T03:32:51.156Z,14.85
2019-04-25T03:34:13.552Z,14.79
2019-04-25T03:35:30.663Z,14.87
2019-04-25T03:36:40.603Z,14.87
2019-04-25T03:37:51.558Z,14.86
2019-04-25T03:39:03.942Z,14.87
2019-04-25T03:40:16.373Z,14.81
2019-04-25T03:41:26.993Z,14.82
2019-04-25T03:42:36.695Z,14.81
2019-04-25T03:43:46.706Z,14.78
2019-04-25T03:44:56.408Z,14.79
2019-04-25T03:46:10.280Z,14.78
2019-04-25T03:47:23.390Z,14.71
2019-04-25T03:48:36.454Z,14.68
2019-04-25T03:49:48.227Z,14.63
2019-04-25T03:51:00.277Z,14.63
2019-04-25T03:52:14.186Z,14.62
2019-04-25T03:53:24.235Z,14.51
2019-04-25T03:54:33.681Z,14.55
2019-04-25T03:55:44.308Z,14.45
2019-04-25T03:56:58.684Z,14.53
2019-04-25T03:58:16.948Z,14.41
2019-04-25T03:59:28.401Z,14.45
2019-04-25T04:00:41.139Z,14.44
2019-04-25T04:01:53.698Z,14.43
2019-04-25T04:03:09.136Z,14.43
2019-04-25T04:04:20.899Z,14.49
2019-04-25T04:05:31.452Z,14.41
2019-04-25T04:06:41.931Z,14.31
2019-04-25T04:07:51.529Z,14.37
2019-04-25T04:09:01.477Z,14.33
2019-04-25T04:10:15.509Z,14.28
2019-04-25T04:11:26.550Z,14.3
2019-04-25T04:12:38.029Z,14.28
2019-04-25T04:13:49.628Z,14.25
2019-04-25T04:15:00.816Z,14.3
2019-04-25T04:16:14.312Z,14.26
2019-04-25T04:17:26.152Z,14.25
2019-04-25T04:18:36.427Z,14.16
2019-04-25T04:19:47.680Z,14.26
2019-04-25T04:20:58.995Z,14.13
2019-04-25T04:22:11.155Z,14.11
2019-04-25T04:23:23.240Z,14.07
2019-04-25T04:24:34.160Z,14.07
2019-04-25T04:25:45.649Z,14.05
2019-04-25T04:27:12.095Z,14.01
2019-04-25T04:28:24.119Z,14.03
2019-04-25T04:29:35.299Z,14.03
2019-04-25T04:30:47.645Z,13.94
2019-04-25T04:31:59.294Z,13.89
2019-04-25T04:33:31.718Z,13.91
2019-04-25T04:34:43.514Z,13.87
2019-04-25T04:35:56.713Z,13.95
2019-04-25T04:37:09.928Z,13.91
2019-04-25T04:38:24.056Z,13.93
2019-04-25T04:39:33.818Z,13.87
2019-04-25T04:40:44.141Z,13.71
2019-04-25T04:41:55.444Z,13.78
2019-04-25T04:43:07.994Z,13.7
2019-04-25T04:44:21.303Z,13.64
2019-04-25T04:45:31.773Z,13.75
2019-04-25T04:46:41.953Z,13.68
2019-04-25T04:47:51.409Z,13.68
2019-04-25T04:49:01.373Z,13.67
2019-04-25T04:50:12.842Z,13.6
2019-04-25T04:51:25.867Z,13.58
2019-04-25T04:52:36.514Z,13.6
2019-04-25T04:53:46.326Z,13.6
2019-04-25T04:55:14.472Z,13.6
2019-04-25T04:56:30.480Z,13.5
2019-04-25T04:57:43.423Z,13.54
2019-04-25T04:58:56.340Z,13.5
2019-04-25T05:00:06.305Z,13.46
2019-04-25T05:01:18.835Z,13.43
2019-04-25T05:02:30.007Z,13.43
2019-04-25T05:03:40.776Z,13.42
2019-04-25T05:04:53.523Z,13.45
2019-04-25T05:06:03.729Z,13.4
2019-04-25T05:07:14.969Z,13.39
2019-04-25T05:08:27.298Z,13.4
2019-04-25T05:09:38.031Z,13.37
2019-04-25T05:10:48.812Z,13.43
2019-04-25T05:12:00.896Z,13.36
2019-04-25T05:13:12.105Z,13.45
2019-04-25T05:14:26.582Z,13.36
2019-04-25T05:15:37.882Z,13.31
2019-04-25T05:16:49.569Z,13.4
2019-04-25T05:18:00.908Z,13.33
2019-04-25T05:19:11.512Z,13.42
2019-04-25T05:20:24.588Z,13.43
2019-04-25T05:21:34.033Z,13.31
2019-04-25T05:22:44.499Z,13.36
2019-04-25T05:23:54.353Z,13.31
2019-04-25T05:25:05.846Z,13.31
2019-04-25T05:26:18.948Z,13.33
2019-04-25T05:28:03.461Z,13.37
2019-04-25T05:29:21.240Z,13.33
2019-04-25T05:30:36.045Z,13.3
2019-04-25T05:31:47.782Z,13.4
2019-04-25T05:32:58.965Z,13.39
2019-04-25T05:34:09.281Z,13.42
2019-04-25T05:35:25.386Z,13.39
2019-04-25T05:36:36.172Z,13.33
2019-04-25T05:37:46.056Z,13.42
2019-04-25T05:38:56.326Z,13.43
2019-04-25T05:40:07.811Z,13.47
2019-04-25T05:41:24.075Z,13.6
2019-04-25T05:42:35.607Z,13.57
2019-04-25T05:43:45.970Z,13.68
2019-04-25T05:44:56.536Z,13.73
2019-04-25T05:46:08.172Z,13.65
2019-04-25T05:47:25.959Z,13.78
2019-04-25T05:48:38.910Z,13.76
2019-04-25T05:49:49.089Z,13.83
2019-04-25T05:50:59.429Z,13.87
2019-04-25T05:52:09.415Z,13.91
2019-04-25T05:53:21.883Z,13.97
2019-04-25T05:54:34.344Z,14.04
2019-04-25T05:55:44.227Z,14.03
2019-04-25T05:56:53.938Z,14.04
2019-04-25T05:58:03.815Z,14.08
2019-04-25T05:59:13.509Z,14.16
2019-04-25T06:00:24.990Z,14.28
2019-04-25T06:01:38.128Z,14.2
2019-04-25T06:02:50.948Z,14.31
2019-04-25T06:04:00.786Z,14.3
2019-04-25T06:05:13.167Z,14.34
2019-04-25T06:06:26.130Z,14.43
2019-04-25T06:07:35.879Z,14.55
2019-04-25T06:08:46.602Z,14.52
2019-04-25T06:09:56.966Z,14.63
2019-04-25T06:11:08.778Z,14.56
2019-04-25T06:12:19.822Z,14.66
2019-04-25T06:13:33.491Z,14.82
2019-04-25T06:14:43.418Z,14.79
2019-04-25T06:15:53.432Z,14.82
2019-04-25T06:17:03.468Z,14.92
2019-04-25T06:18:13.976Z,14.96
2019-04-25T06:19:27.926Z,14.89
2019-04-25T06:20:39.306Z,14.87
2019-04-25T06:21:49.624Z,14.87
2019-04-25T06:23:01.138Z,15
2019-04-25T06:24:11.099Z,15.07
2019-04-25T06:25:29.243Z,15.08
2019-04-25T06:26:48.920Z,15.07
2019-04-25T06:28:03.853Z,15.05
2019-04-25T06:29:13.571Z,15.11
2019-04-25T06:30:24.850Z,15.1
2019-04-25T06:31:36.620Z,15.15
2019-04-25T06:32:46.334Z,15.02
2019-04-25T06:33:58.603Z,15.02
2019-04-25T06:35:09.856Z,14.97
2019-04-25T06:36:20.306Z,14.89
2019-04-25T06:37:35.033Z,14.92
2019-04-25T06:38:46.736Z,14.86
2019-04-25T06:39:58.212Z,14.86
2019-04-25T06:41:08.971Z,14.9
2019-04-25T06:42:18.923Z,14.96
2019-04-25T06:43:34.002Z,14.99
2019-04-25T06:44:45.956Z,14.9
2019-04-25T06:45:57.714Z,15.05
2019-04-25T06:47:09.097Z,15.15
2019-04-25T06:48:21.252Z,15.17
2019-04-25T06:49:38.776Z,15.1
2019-04-25T06:50:48.653Z,15.17
2019-04-25T06:51:59.228Z,15.12
2019-04-25T06:53:10.063Z,15.15
2019-04-25T06:54:21.956Z,15.19
2019-04-25T06:55:36.685Z,15.12
2019-04-25T06:56:48.278Z,15.18
2019-04-25T06:58:14.063Z,15.17
2019-04-25T06:59:28.826Z,15.19
2019-04-25T07:01:03.523Z,15.18
2019-04-25T07:02:13.961Z,15.27
2019-04-25T07:03:26.021Z,15.23
2019-04-25T07:04:39.299Z,15.37
2019-04-25T07:05:50.968Z,15.33
2019-04-25T07:07:14.896Z,15.37
2019-04-25T07:08:27.894Z,15.43
2019-04-25T07:09:40.748Z,15.43
2019-04-25T07:10:51.054Z,15.37
2019-04-25T07:12:03.549Z,15.37
2019-04-25T07:13:14.217Z,15.3
2019-04-25T07:14:25.708Z,15.45
2019-04-25T07:15:38.588Z,15.37
2019-04-25T07:16:48.744Z,15.43
2019-04-25T07:17:58.594Z,15.36
2019-04-25T07:19:09.425Z,15.36
2019-04-25T07:20:21.360Z,15.37
2019-04-25T07:21:37.793Z,15.37
2019-04-25T07:22:48.360Z,15.37
2019-04-25T07:23:59.002Z,15.37
2019-04-25T07:25:09.426Z,15.37
2019-04-25T07:26:20.851Z,15.39
2019-04-25T07:27:34.647Z,15.36
2019-04-25T07:28:46.466Z,15.36
2019-04-25T07:29:56.451Z,15.37
2019-04-25T07:31:08.386Z,15.35
2019-04-25T07:32:19.323Z,15.41
2019-04-25T07:33:34.990Z,15.43
2019-04-25T07:34:46.317Z,15.35
2019-04-25T07:35:59.387Z,15.44
2019-04-25T07:37:09.579Z,15.45
2019-04-25T07:38:20.911Z,15.33
2019-04-25T07:39:33.942Z,15.47
2019-04-25T07:40:45.291Z,15.52
2019-04-25T07:41:56.256Z,15.5
2019-04-25T07:43:07.333Z,15.57
2019-04-25T07:44:24.597Z,15.57
2019-04-25T07:45:59.866Z,15.57
2019-04-25T07:47:11.119Z,15.6
2019-04-25T07:48:23.089Z,15.59
2019-04-25T07:49:37.839Z,15.62
2019-04-25T07:50:48.734Z,15.5
2019-04-25T07:51:58.969Z,15.57
2019-04-25T07:53:10.539Z,15.62
2019-04-25T07:54:21.707Z,15.62
2019-04-25T07:55:38.806Z,15.7
2019-04-25T07:56:48.837Z,15.78
2019-04-25T07:58:00.282Z,15.72
2019-04-25T07:59:10.823Z,15.72
2019-04-25T08:00:21.620Z,15.75
2019-04-25T08:01:36.484Z,15.84
2019-04-25T08:02:48.469Z,15.96
2019-04-25T08:03:59.552Z,15.98
2019-04-25T08:05:11.140Z,15.99
2019-04-25T08:06:24.989Z,16.16
2019-04-25T08:07:38.421Z,16.21
2019-04-25T08:08:48.965Z,16.22
2019-04-25T08:09:59.633Z,16.24
2019-04-25T08:11:09.341Z,16.26
2019-04-25T08:12:19.505Z,16.37
2019-04-25T08:13:32.046Z,16.32
2019-04-25T08:14:43.682Z,16.32
2019-04-25T08:15:56.301Z,16.39
2019-04-25T08:17:06.249Z,16.43
2019-04-25T08:18:16.377Z,16.44
2019-04-25T08:19:30.952Z,16.43
2019-04-25T08:20:43.379Z,16.5
2019-04-25T08:21:55.789Z,16.46
2019-04-25T08:23:06.659Z,16.49
2019-04-25T08:24:16.621Z,16.5
2019-04-25T08:25:28.470Z,16.58
2019-04-25T08:26:46.122Z,16.65
2019-04-25T08:27:57.608Z,16.69
2019-04-25T08:29:09.098Z,16.76
2019-04-25T08:30:20.903Z,16.74
2019-04-25T08:31:34.846Z,16.87
2019-04-25T08:32:46.544Z,16.82
2019-04-25T08:33:56.063Z,17.05
2019-04-25T08:35:06.231Z,17.17
2019-04-25T08:36:16.201Z,17.19
2019-04-25T08:37:26.519Z,17.22
2019-04-25T08:38:40.915Z,17.2
2019-04-25T08:39:53.553Z,17.32
2019-04-25T08:41:04.134Z,17.34
2019-04-25T08:42:15.483Z,17.34
2019-04-25T08:43:26.805Z,17.38
2019-04-25T08:44:43.680Z,17.5
2019-04-25T08:45:56.753Z,17.52
2019-04-25T08:47:06.734Z,17.68
2019-04-25T08:48:18.368Z,17.69
2019-04-25T08:49:28.844Z,17.54
2019-04-25T08:50:46.174Z,17.71
2019-04-25T08:51:58.033Z,17.84
2019-04-25T08:53:09.450Z,18.05
2019-04-25T08:54:20.178Z,18.16
2019-04-25T08:55:31.352Z,18.37
2019-04-25T08:56:46.398Z,18.55
2019-04-25T08:57:56.486Z,18.85
2019-04-25T08:59:10.611Z,19.27
2019-04-25T09:00:21.904Z,19.48
2019-04-25T09:01:32.792Z,19.85
2019-04-25T09:02:50.126Z,20.19
2019-04-25T09:03:59.835Z,20.5
2019-04-25T09:05:14.425Z,20.73
2019-04-25T09:06:26.834Z,20.89
2019-04-25T09:07:42.516Z,21.32
2019-04-25T09:08:54.085Z,21.29
2019-04-25T09:10:05.941Z,21.23
2019-04-25T09:11:15.896Z,21.35
2019-04-25T09:12:26.469Z,21.65
2019-04-25T09:13:41.755Z,21.85
2019-04-25T09:14:52.200Z,22.31
2019-04-25T09:16:03.474Z,22.86
2019-04-25T09:17:14.253Z,23.14
2019-04-25T09:18:24.300Z,23.08
2019-04-25T09:19:36.166Z,23.47
2019-04-25T09:20:51.242Z,23.18
2019-04-25T09:22:03.133Z,23.29
2019-04-25T09:23:13.671Z,23.66
2019-04-25T09:24:24.565Z,23.79
2019-04-25T09:25:37.135Z,23.99
2019-04-25T09:26:49.854Z,24.04
2019-04-25T09:28:01.397Z,24.06
2019-04-25T09:29:23.608Z,24.01
2019-04-25T09:30:34.233Z,23.89
2019-04-25T09:31:48.182Z,23.95
2019-04-25T09:32:59.028Z,24.4
2019-04-25T09:34:09.974Z,24.74
2019-04-25T09:35:23.579Z,25.19
2019-04-25T09:36:33.733Z,25.48
2019-04-25T09:37:44.907Z,25.68
2019-04-25T09:38:56.276Z,25.39
2019-04-25T09:40:06.688Z,25.62
2019-04-25T09:41:17.777Z,25.92
2019-04-25T09:42:28.949Z,25.95
2019-04-25T09:43:40.642Z,25.81
2019-04-25T09:44:53.797Z,25.73
2019-04-25T09:46:05.214Z,25.85
2019-04-25T09:47:15.788Z,26.04
2019-04-25T09:48:25.748Z,25.81
2019-04-25T09:49:37.950Z,25.68
2019-04-25T09:50:51.107Z,25.74
2019-04-25T09:52:00.843Z,25.71
2019-04-25T09:53:24.248Z,25.46
2019-04-25T09:54:36.294Z,25.68
2019-04-25T09:55:51.579Z,25.71
2019-04-25T09:57:03.659Z,25.86
2019-04-25T09:58:13.570Z,25.85
2019-04-25T09:59:33.130Z,26.26
2019-04-25T10:00:47.646Z,26.04
2019-04-25T10:01:57.646Z,26.41
2019-04-25T10:03:09.435Z,25.76
2019-04-25T10:04:22.939Z,25.76
2019-04-25T10:05:33.899Z,25.89
2019-04-25T10:06:47.549Z,26.33
2019-04-25T10:07:58.825Z,26.83
2019-04-25T10:09:09.852Z,27.1
2019-04-25T10:10:24.088Z,27.5
2019-04-25T10:11:35.888Z,27.58
2019-04-25T10:12:47.753Z,27.44
2019-04-25T10:14:00.043Z,27.29
2019-04-25T10:15:09.903Z,27.29
2019-04-25T10:16:21.468Z,27.33
2019-04-25T10:17:30.944Z,27.64
2019-04-25T10:18:46.060Z,28.09
2019-04-25T10:19:55.261Z,28.22
2019-04-25T10:21:06.743Z,28.45
2019-04-25T10:22:16.454Z,28.65
2019-04-25T10:23:26.542Z,28.71
2019-04-25T10:24:37.345Z,28.65
2019-04-25T10:25:49.749Z,28.71
2019-04-25T10:27:01.175Z,28.83
2019-04-25T10:28:11.142Z,29.03
2019-04-25T10:29:20.840Z,28.84
2019-04-25T10:30:30.654Z,28.2
2019-04-25T10:31:44.030Z,28.35
2019-04-25T10:32:57.195Z,28.43
2019-04-25T10:34:08.642Z,28.6
2019-04-25T10:35:19.497Z,29
2019-04-25T10:36:29.521Z,29.06
2019-04-25T10:37:48.476Z,28.8
2019-04-25T10:39:14.598Z,28.67
2019-04-25T10:40:27.296Z,28.59
2019-04-25T10:41:45.203Z,28.97
2019-04-25T10:42:58.192Z,29.39
2019-04-25T10:44:09.300Z,29.28
2019-04-25T10:45:28.561Z,29.43
2019-04-25T10:46:40.068Z,29.28
2019-04-25T10:47:55.209Z,29.5
2019-04-25T10:49:06.876Z,29.68
2019-04-25T10:50:18.342Z,29.81
2019-04-25T10:51:29.147Z,29.87
2019-04-25T10:52:39.755Z,29.59
2019-04-25T10:53:53.810Z,29.81
2019-04-25T10:55:06.555Z,30.31
2019-04-25T10:56:16.742Z,30.56
2019-04-25T10:57:28.622Z,30.4
2019-04-25T10:58:40.220Z,30.49
2019-04-25T11:00:11.746Z,31.04
2019-04-25T11:01:21.707Z,31.39
2019-04-25T11:02:33.898Z,31.67
2019-04-25T11:03:48.386Z,31.25
2019-04-25T11:05:00.916Z,31.02
2019-04-25T11:06:10.961Z,30.61
2019-04-25T11:07:23.287Z,30.35
2019-04-25T11:08:33.990Z,30.2
2019-04-25T11:09:48.019Z,30.54
2019-04-25T11:11:00.332Z,30.71
2019-04-25T11:12:11.444Z,30.95
2019-04-25T11:13:21.164Z,31.2
2019-04-25T11:14:31.138Z,31.41
2019-04-25T11:15:42.763Z,31.77
2019-04-25T11:16:54.984Z,32.19
2019-04-25T11:18:06.568Z,32.42
2019-04-25T11:19:17.819Z,32.64
2019-04-25T11:20:29.211Z,32.76
2019-04-25T11:21:39.186Z,32.9
2019-04-25T11:22:53.433Z,32.95
2019-04-25T11:24:04.050Z,32.93
2019-04-25T11:25:14.994Z,33.01
2019-04-25T11:26:24.986Z,32.53
2019-04-25T11:27:36.445Z,32.26
2019-04-25T11:28:49.712Z,32.3
2019-04-25T11:30:14.041Z,32.54
2019-04-25T11:31:25.878Z,32.71
2019-04-25T11:32:36.410Z,32.85
2019-04-25T11:33:46.414Z,32.83
2019-04-25T11:34:57.399Z,33.12
2019-04-25T11:36:09.069Z,33.2
2019-04-25T11:37:20.930Z,33.36
2019-04-25T11:38:33.869Z,33.42
2019-04-25T11:39:46.042Z,32.63
2019-04-25T11:40:57.568Z,32.75
2019-04-25T11:42:08.940Z,32.54
2019-04-25T11:43:20.287Z,32.01
2019-04-25T11:44:30.273Z,32.09
2019-04-25T11:45:42.144Z,31.6
2019-04-25T11:46:54.274Z,31.79
2019-04-25T11:48:05.320Z,31.86
2019-04-25T11:49:17.465Z,31.74
2019-04-25T11:50:29.035Z,31.86
2019-04-25T11:51:39.011Z,32.05
2019-04-25T11:52:52.532Z,32.38
2019-04-25T11:54:05.973Z,32.73
2019-04-25T11:55:16.768Z,32.79
2019-04-25T11:56:26.717Z,32.73
2019-04-25T11:57:36.690Z,32.61
2019-04-25T11:58:51.137Z,31.41
2019-04-25T12:00:04.197Z,31.22
2019-04-25T12:01:26.600Z,31.17
2019-04-25T12:02:36.866Z,31.36
2019-04-25T12:03:50.122Z,31.82
2019-04-25T12:05:01.108Z,31.93
2019-04-25T12:06:14.128Z,32.37
2019-04-25T12:07:23.722Z,32.61
2019-04-25T12:08:33.756Z,32.93
2019-04-25T12:09:45.747Z,33.08
2019-04-25T12:10:59.566Z,33.03
2019-04-25T12:12:11.367Z,32.37
2019-04-25T12:13:24.137Z,32.31
2019-04-25T12:14:36.543Z,32.56
2019-04-25T12:15:49.828Z,33.1
2019-04-25T12:17:01.081Z,33.39
2019-04-25T12:18:11.550Z,33.17
2019-04-25T12:19:32.971Z,33.38
2019-04-25T12:20:48.738Z,33.48
2019-04-25T12:22:03.998Z,33.6
2019-04-25T12:23:16.885Z,33.67
2019-04-25T12:24:26.609Z,33.55
2019-04-25T12:25:36.525Z,33.17
2019-04-25T12:26:50.656Z,32.95
2019-04-25T12:28:04.246Z,32.72
2019-04-25T12:29:14.540Z,32.95
2019-04-25T12:30:40.370Z,33.33
2019-04-25T12:31:54.568Z,33.4
2019-04-25T12:33:17.960Z,33.55
2019-04-25T12:34:29.248Z,33.6
2019-04-25T12:35:39.213Z,33.65
2019-04-25T12:36:50.251Z,33.77
2019-04-25T12:38:03.425Z,33.72
2019-04-25T12:39:13.959Z,33.76
2019-04-25T12:40:24.307Z,33.85
2019-04-25T12:41:34.341Z,34.16
2019-04-25T12:42:44.447Z,34.4
2019-04-25T12:43:57.600Z,34.55
2019-04-25T12:45:09.003Z,34.56
2019-04-25T12:46:19.197Z,34.96
2019-04-25T12:47:29.173Z,34.94
2019-04-25T12:48:39.677Z,34.73
2019-04-25T12:49:52.508Z,34.43
2019-04-25T12:51:03.305Z,34.55
2019-04-25T12:52:13.036Z,34.62
2019-04-25T12:53:23.568Z,34.14
2019-04-25T12:54:33.944Z,33.81
2019-04-25T12:55:44.254Z,33.58
2019-04-25T12:56:57.213Z,33.19
2019-04-25T12:58:10.638Z,33.72
2019-04-25T12:59:21.252Z,33.84
2019-04-25T13:00:31.267Z,33.91
2019-04-25T13:01:57.293Z,34.28
2019-04-25T13:03:11.814Z,34.43
2019-04-25T13:04:22.084Z,34.63
2019-04-25T13:05:32.065Z,34.93
2019-04-25T13:06:41.777Z,34.82
2019-04-25T13:07:54.073Z,34.78
2019-04-25T13:09:10.269Z,34.97
2019-04-25T13:10:20.237Z,35.26
2019-04-25T13:11:31.065Z,35.44
2019-04-25T13:12:42.476Z,35.66
2019-04-25T13:13:52.440Z,35.76
2019-04-25T13:15:02.403Z,35.91
2019-04-25T13:16:13.126Z,36.18
2019-04-25T13:17:24.067Z,36.33
2019-04-25T13:18:33.669Z,36.59
2019-04-25T13:19:44.079Z,36.75
2019-04-25T13:20:55.315Z,36.75
2019-04-25T13:22:05.945Z,36.8
2019-04-25T13:23:16.858Z,36.8
2019-04-25T13:24:26.578Z,36.81
2019-04-25T13:25:36.759Z,36.87
2019-04-25T13:26:48.261Z,36.73
2019-04-25T13:27:59.440Z,36.31
2019-04-25T13:29:14.009Z,35.52
2019-04-25T13:30:26.618Z,34.41
2019-04-25T13:31:38.071Z,33.67
2019-04-25T13:32:49.598Z,33.19
2019-04-25T13:33:59.793Z,33.16
2019-04-25T13:35:13.606Z,33.32
2019-04-25T13:36:23.369Z,33.42
2019-04-25T13:37:34.148Z,33.28
2019-04-25T13:38:45.243Z,33.04
2019-04-25T13:39:57.401Z,33.31
2019-04-25T13:41:08.903Z,32.88
2019-04-25T13:42:19.201Z,32.86
2019-04-25T13:43:30.378Z,33.04
2019-04-25T13:44:40.342Z,33.45
2019-04-25T13:45:51.396Z,33.47
2019-04-25T13:47:01.115Z,33.4
2019-04-25T13:48:13.202Z,33.65
2019-04-25T13:49:23.013Z,34.04
2019-04-25T13:50:34.385Z,34.33
2019-04-25T13:51:44.180Z,34.7
2019-04-25T13:52:55.750Z,34.81
2019-04-25T13:54:05.713Z,34.76
2019-04-25T13:55:16.101Z,34.91
2019-04-25T13:56:31.078Z,35
2019-04-25T13:57:45.868Z,35.25
2019-04-25T13:58:56.447Z,35.44
2019-04-25T14:00:06.596Z,35.6
2019-04-25T14:01:20.947Z,35.66
2019-04-25T14:02:33.903Z,35.91
2019-04-25T14:03:44.371Z,35.96
2019-04-25T14:04:54.442Z,36.08
2019-04-25T14:06:05.814Z,35.93
2019-04-25T14:07:15.777Z,35.61
2019-04-25T14:08:29.430Z,35.69
2019-04-25T14:09:41.103Z,35.66
2019-04-25T14:10:52.297Z,35.52
2019-04-25T14:12:03.859Z,35.03
2019-04-25T14:13:13.756Z,34.97
2019-04-25T14:14:24.633Z,35.05
2019-04-25T14:15:37.229Z,35.03
2019-04-25T14:16:48.629Z,35
2019-04-25T14:17:59.889Z,34.86
2019-04-25T14:19:11.417Z,35.25
2019-04-25T14:20:25.175Z,35.22
2019-04-25T14:21:38.218Z,35.37
2019-04-25T14:22:50.267Z,35.5
2019-04-25T14:24:01.325Z,35.32
2019-04-25T14:25:11.047Z,34.78
2019-04-25T14:26:23.178Z,34.79
2019-04-25T14:27:34.016Z,34.69
2019-04-25T14:28:44.370Z,34.73
2019-04-25T14:29:55.711Z,34.66
2019-04-25T14:31:05.421Z,34.69
2019-04-25T14:32:15.148Z,34.79
2019-04-25T14:33:28.687Z,34.88
2019-04-25T14:34:40.614Z,34.89
2019-04-25T14:35:50.958Z,34.96
2019-04-25T14:37:02.244Z,34.88
2019-04-25T14:38:13.692Z,34.82
2019-04-25T14:39:23.690Z,34.73
2019-04-25T14:40:35.698Z,34.35
2019-04-25T14:41:47.530Z,34.37
2019-04-25T14:42:57.506Z,34.47
2019-04-25T14:44:07.514Z,34.73
2019-04-25T14:45:17.502Z,34.89
2019-04-25T14:46:29.845Z,35.2
2019-04-25T14:47:40.968Z,35.45
2019-04-25T14:48:52.733Z,35.68
2019-04-25T14:50:02.700Z,35.6
2019-04-25T14:51:15.581Z,35.01
2019-04-25T14:52:26.877Z,34.93
2019-04-25T14:53:39.847Z,35.03
2019-04-25T14:54:49.582Z,35.08
2019-04-25T14:55:59.548Z,35.16
2019-04-25T14:57:09.542Z,35.08
2019-04-25T14:58:19.538Z,34.86
2019-04-25T14:59:31.555Z,34.78
2019-04-25T15:00:41.556Z,34.41
2019-04-25T15:01:51.531Z,34.38
2019-04-25T15:03:01.259Z,34.46
2019-04-25T15:04:10.999Z,34.48
2019-04-25T15:05:20.478Z,34.6
2019-04-25T15:06:32.122Z,34.62
2019-04-25T15:07:43.033Z,34.35
2019-04-25T15:08:53.563Z,34.21
2019-04-25T15:10:03.013Z,34
2019-04-25T15:11:12.482Z,33.85
2019-04-25T15:12:23.462Z,33.84
2019-04-25T15:13:35.218Z,34
2019-04-25T15:14:45.017Z,34.14
2019-04-25T15:15:54.749Z,34.18
2019-04-25T15:17:04.220Z,34.33
2019-04-25T15:18:14.182Z,34.48
2019-04-25T15:19:24.454Z,34.62
2019-04-25T15:20:35.200Z,34.66
2019-04-25T15:21:45.239Z,34.7
2019-04-25T15:22:55.219Z,34.63
2019-04-25T15:24:05.173Z,34.32
2019-04-25T15:25:15.153Z,34.14
2019-04-25T15:26:25.305Z,34.18
2019-04-25T15:27:36.409Z,33.87
2019-04-25T15:28:46.387Z,33.73
2019-04-25T15:29:56.421Z,33.85
2019-04-25T15:31:06.152Z,33.89
2019-04-25T15:32:16.170Z,33.79
2019-04-25T15:33:26.690Z,33.69
2019-04-25T15:34:36.662Z,33.79
2019-04-25T15:35:47.933Z,33.53